createdAt,value
2023-01-20T00:02:43.873Z,93650.13
2023-01-20T00:05:29.957Z,93658.25
2023-01-20T00:08:16.319Z,93624.97
2023-01-20T00:11:06.161Z,93625.72
2023-01-20T00:13:55.961Z,93583.56
2023-01-20T00:16:41.829Z,93501.16
2023-01-20T00:19:28.415Z,93403.75
2023-01-20T00:22:14.181Z,93408.72
2023-01-20T00:25:00.883Z,93435.84
2023-01-20T00:27:46.892Z,93457.78
2023-01-20T00:30:32.903Z,93455.53
2023-01-20T00:33:18.784Z,93439.28
2023-01-20T00:36:04.815Z,93424.97
2023-01-20T00:38:50.673Z,93418.81
2023-01-20T00:41:36.932Z,93397.09
2023-01-20T00:44:23.036Z,93383.56
2023-01-20T00:47:09.270Z,93392.91
2023-01-20T00:49:55.618Z,93399.81
2023-01-20T00:52:41.823Z,93395.16
2023-01-20T00:55:28.039Z,93407.97
2023-01-20T00:58:14.268Z,93416.84
2023-01-20T01:01:00.459Z,93417.56
2023-01-20T01:03:46.502Z,93402.78
2023-01-20T01:06:32.586Z,93394.66
2023-01-20T01:09:18.462Z,93404.03
2023-01-20T01:12:04.818Z,93419.06
2023-01-20T01:14:51.142Z,93410.19
2023-01-20T01:17:37.148Z,93401.59
2023-01-20T01:20:23.255Z,93402.78
2023-01-20T01:23:09.554Z,93376.44
2023-01-20T01:25:56.040Z,93408.22
2023-01-20T01:28:42.450Z,93396.66
2023-01-20T01:31:28.446Z,93406.72
2023-01-20T01:34:15.371Z,93399.81
2023-01-20T01:37:01.272Z,93405.25
2023-01-20T01:39:47.089Z,93395.63
2023-01-20T01:42:33.352Z,93414.59
2023-01-20T01:45:23.664Z,93414.34
2023-01-20T01:48:09.818Z,93417.81
2023-01-20T01:51:01.258Z,93425.19
2023-01-20T01:53:48.606Z,93431.84
2023-01-20T01:56:34.927Z,93433.31
2023-01-20T01:59:20.867Z,93434.81
2023-01-20T02:02:07.079Z,93423.22
2023-01-20T02:04:53.050Z,93437.25
2023-01-20T02:07:39.315Z,93424.72
2023-01-20T02:10:25.347Z,93423.22
2023-01-20T02:13:11.358Z,93406.22
2023-01-20T02:16:02.218Z,93405.75
2023-01-20T02:18:48.441Z,93403.75
2023-01-20T02:21:55.261Z,93406.22
2023-01-20T02:24:59.727Z,93402.28
2023-01-20T02:27:49.103Z,93394.13
2023-01-20T02:30:49.100Z,93391.44
2023-01-20T02:33:39.206Z,93391.44
2023-01-20T02:36:25.141Z,93395.34
2023-01-20T02:39:34.550Z,93400.78
2023-01-20T02:42:22.680Z,93389.94
2023-01-20T02:45:08.567Z,93376.63
2023-01-20T02:47:58.470Z,93376.38
2023-01-20T02:51:05.394Z,93380.59
2023-01-20T02:53:59.482Z,93368.25
2023-01-20T02:56:45.730Z,93351.97
2023-01-20T02:59:32.887Z,93346.81
2023-01-20T03:02:19.816Z,93348.81
2023-01-20T03:05:07.510Z,93338.69
2023-01-20T03:07:53.617Z,93358.88
2023-01-20T03:10:39.988Z,93369.00
2023-01-20T03:13:30.470Z,93353.72
2023-01-20T03:16:21.216Z,93353.47
2023-01-20T03:19:07.597Z,93348.03
2023-01-20T03:21:53.474Z,93354.22
2023-01-20T03:24:39.551Z,93361.13
2023-01-20T03:27:26.032Z,93363.09
2023-01-20T03:30:13.247Z,93356.44
2023-01-20T03:32:58.937Z,93365.78
2023-01-20T03:35:45.059Z,93355.22
2023-01-20T03:38:31.370Z,93364.31
2023-01-20T03:41:21.150Z,93369.06
2023-01-20T03:44:09.955Z,93367.94
2023-01-20T03:47:08.747Z,93365.03
2023-01-20T03:49:56.354Z,93360.34
2023-01-20T03:53:05.718Z,93336.34
2023-01-20T03:55:53.337Z,93319.41
2023-01-20T03:58:39.772Z,93307.31
2023-01-20T04:01:27.324Z,93309.56
2023-01-20T04:04:14.864Z,93300.22
2023-01-20T04:07:00.573Z,93300.22
2023-01-20T04:09:48.075Z,93294.78
2023-01-20T04:12:34.110Z,93300.97
2023-01-20T04:15:20.199Z,93300.22
2023-01-20T04:18:16.729Z,93283.94
2023-01-20T04:21:02.947Z,93280.47
2023-01-20T04:23:53.071Z,93270.38
2023-01-20T04:26:39.023Z,93280.00
2023-01-20T04:29:25.002Z,93282.00
2023-01-20T04:32:11.590Z,93276.81
2023-01-20T04:34:57.871Z,93276.06
2023-01-20T04:37:44.191Z,93278.78
2023-01-20T04:40:30.103Z,93275.34
2023-01-20T04:43:16.974Z,93288.41
2023-01-20T04:46:04.173Z,93291.59
2023-01-20T04:48:50.045Z,93292.34
2023-01-20T04:51:35.950Z,93307.38
2023-01-20T04:54:22.120Z,93296.28
2023-01-20T04:57:08.365Z,93305.88
2023-01-20T04:59:54.542Z,93310.09
2023-01-20T05:02:40.708Z,93320.94
2023-01-20T05:05:26.924Z,93338.69
2023-01-20T05:08:12.963Z,93349.53
2023-01-20T05:10:59.248Z,93333.25
2023-01-20T05:13:45.520Z,93320.94
2023-01-20T05:16:32.165Z,93331.78
2023-01-20T05:19:18.371Z,93330.28
2023-01-20T05:22:04.118Z,93323.63
2023-01-20T05:24:49.909Z,93333.25
2023-01-20T05:27:36.377Z,93332.53
2023-01-20T05:30:22.286Z,93348.03
2023-01-20T05:33:08.540Z,93348.53
2023-01-20T05:35:55.974Z,93352.94
2023-01-20T05:38:42.174Z,93349.97
2023-01-20T05:41:28.397Z,93348.00
2023-01-20T05:44:15.088Z,93334.16
2023-01-20T05:47:01.309Z,93311.50
2023-01-20T05:49:47.207Z,93312.97
2023-01-20T05:52:33.434Z,93307.06
2023-01-20T05:55:19.754Z,93279.22
2023-01-20T05:58:05.896Z,93304.84
2023-01-20T06:00:51.994Z,93320.41
2023-01-20T06:03:38.165Z,93316.69
2023-01-20T06:06:24.255Z,93336.16
2023-01-20T06:09:11.043Z,93324.09
2023-01-20T06:11:57.031Z,93315.19
2023-01-20T06:14:43.401Z,93325.31
2023-01-20T06:17:29.867Z,93345.06
2023-01-20T06:20:16.401Z,93339.91
2023-01-20T06:23:02.477Z,93322.41
2023-01-20T06:25:48.461Z,93332.03
2023-01-20T06:28:34.760Z,93321.19
2023-01-20T06:31:20.863Z,93291.38
2023-01-20T06:34:06.905Z,93306.91
2023-01-20T06:36:53.056Z,93330.81
2023-01-20T06:39:40.402Z,93328.09
2023-01-20T06:42:26.536Z,93331.56
2023-01-20T06:45:12.932Z,93322.22
2023-01-20T06:47:58.901Z,93314.53
2023-01-20T06:50:45.104Z,93314.53
2023-01-20T06:53:31.404Z,93320.72
2023-01-20T06:56:17.754Z,93313.81
2023-01-20T06:59:03.873Z,93318.00
2023-01-20T07:01:49.773Z,93313.06
2023-01-20T07:04:35.942Z,93299.03
2023-01-20T07:07:21.956Z,93299.03
2023-01-20T07:10:08.626Z,93296.06
2023-01-20T07:12:54.970Z,93306.91
2023-01-20T07:15:41.089Z,93307.63
2023-01-20T07:18:27.230Z,93321.44
2023-01-20T07:21:13.432Z,93304.47
2023-01-20T07:24:00.382Z,93306.41
2023-01-20T07:26:46.355Z,93314.53
2023-01-20T07:29:32.494Z,93318.00
2023-01-20T07:32:19.098Z,93316.78
2023-01-20T07:35:05.282Z,93310.59
2023-01-20T07:37:51.253Z,93295.56
2023-01-20T07:40:37.639Z,93288.66
2023-01-20T07:43:23.544Z,93277.34
2023-01-20T07:46:10.002Z,93280.06
2023-01-20T07:48:56.031Z,93276.59
2023-01-20T07:51:43.329Z,93280.06
2023-01-20T07:54:29.509Z,93266.50
2023-01-20T07:57:15.860Z,93263.03
2023-01-20T08:00:01.958Z,93281.28
2023-01-20T08:02:48.137Z,93275.84
2023-01-20T08:05:34.429Z,93277.56
2023-01-20T08:08:20.628Z,93244.75
2023-01-20T08:11:07.241Z,93243.28
2023-01-20T08:13:53.091Z,93240.81
2023-01-20T08:16:39.456Z,93244.28
2023-01-20T08:19:28.259Z,93251.19
2023-01-20T08:22:14.400Z,93261.28
2023-01-20T08:25:00.438Z,93265.00
2023-01-20T08:27:47.719Z,93260.59
2023-01-20T08:30:33.851Z,93260.84
2023-01-20T08:33:20.851Z,93256.91
2023-01-20T08:36:17.093Z,93249.03
2023-01-20T08:39:04.263Z,93227.34
2023-01-20T08:41:50.657Z,93200.97
2023-01-20T08:44:37.277Z,93204.69
2023-01-20T08:47:23.943Z,93204.69
2023-01-20T08:50:10.799Z,93201.22
2023-01-20T08:52:56.641Z,93190.66
2023-01-20T08:55:42.845Z,93178.81
2023-01-20T08:58:29.421Z,93187.94
2023-01-20T09:01:16.359Z,93195.59
2023-01-20T09:04:06.200Z,93191.88
2023-01-20T09:06:53.922Z,93181.50
2023-01-20T09:09:39.929Z,93187.16
2023-01-20T09:12:26.023Z,93197.28
2023-01-20T09:15:13.067Z,93195.78
2023-01-20T09:17:59.559Z,93199.72
2023-01-20T09:20:45.417Z,93203.91
2023-01-20T09:23:32.166Z,93197.75
2023-01-20T09:26:34.273Z,93197.75
2023-01-20T09:29:21.948Z,93180.25
2023-01-20T09:32:07.982Z,93196.78
2023-01-20T09:34:54.142Z,93189.66
2023-01-20T09:37:59.230Z,93173.84
2023-01-20T09:41:10.036Z,93174.59
2023-01-20T09:44:22.528Z,93184.22
2023-01-20T09:47:20.515Z,93189.66
2023-01-20T09:50:25.318Z,93179.53
2023-01-20T09:53:18.171Z,93189.66
2023-01-20T09:56:14.252Z,93180.28
2023-01-20T09:59:20.830Z,93165.97
2023-01-20T10:02:07.713Z,93169.69
2023-01-20T10:05:13.521Z,93153.16
2023-01-20T10:08:01.815Z,93165.03
2023-01-20T10:10:52.479Z,93165.75
2023-01-20T10:13:41.069Z,93151.94
2023-01-20T10:16:32.485Z,93145.28
2023-01-20T10:19:21.954Z,93123.59
2023-01-20T10:22:23.220Z,93115.72
2023-01-20T10:25:10.408Z,93123.13
2023-01-20T10:27:56.837Z,93133.97
2023-01-20T10:30:47.149Z,93130.50
2023-01-20T10:33:45.849Z,93129.28
2023-01-20T10:36:32.139Z,93135.44
2023-01-20T10:39:28.629Z,93129.28
2023-01-20T10:42:15.570Z,93130.03
2023-01-20T10:45:01.733Z,93125.31
2023-01-20T10:47:51.994Z,93131.50
2023-01-20T10:50:40.943Z,93119.19
2023-01-20T10:53:45.483Z,93126.56
2023-01-20T10:56:32.848Z,93127.09
2023-01-20T10:59:23.730Z,93136.44
2023-01-20T11:02:20.762Z,93135.22
2023-01-20T11:05:17.205Z,93134.00
2023-01-20T11:08:03.233Z,93136.72
2023-01-20T11:10:49.958Z,93133.50
2023-01-20T11:13:35.879Z,93123.41
2023-01-20T11:16:24.695Z,93126.38
2023-01-20T11:19:11.866Z,93131.03
2023-01-20T11:21:58.605Z,93134.50
2023-01-20T11:24:44.624Z,93121.66
2023-01-20T11:27:48.687Z,93116.03
2023-01-20T11:30:34.998Z,93114.78
2023-01-20T11:33:21.977Z,93124.63
2023-01-20T11:36:16.928Z,93114.28
2023-01-20T11:39:02.914Z,93117.00
2023-01-20T11:41:48.713Z,93104.66
2023-01-20T11:44:41.268Z,93108.63
2023-01-20T11:47:28.567Z,93118.72
2023-01-20T11:50:25.011Z,93124.13
2023-01-20T11:53:17.218Z,93121.41
2023-01-20T11:56:04.979Z,93126.13
2023-01-20T11:58:58.383Z,93132.28
2023-01-20T12:01:50.691Z,93132.00
2023-01-20T12:04:39.659Z,93138.19
2023-01-20T12:07:29.168Z,93135.47
2023-01-20T12:10:22.675Z,93144.34
2023-01-20T12:13:14.718Z,93165.31
2023-01-20T12:16:01.435Z,93172.44
2023-01-20T12:19:05.108Z,93192.19
2023-01-20T12:21:53.509Z,93205.44
2023-01-20T12:25:01.480Z,93208.16
2023-01-20T12:27:49.054Z,93205.97
2023-01-20T12:30:40.549Z,93213.34
2023-01-20T12:33:30.926Z,93218.28
2023-01-20T12:36:29.947Z,93245.88
2023-01-20T12:39:25.337Z,93248.59
2023-01-20T12:42:30.036Z,93253.28
2023-01-20T12:45:34.999Z,93258.72
2023-01-20T12:48:24.451Z,93248.34
2023-01-20T12:51:22.473Z,93251.81
2023-01-20T12:54:48.025Z,93242.66
2023-01-20T12:57:38.970Z,93261.38
2023-01-20T13:00:32.338Z,93242.88
2023-01-20T13:03:21.509Z,93253.97
2023-01-20T13:06:19.977Z,93260.66
2023-01-20T13:09:25.071Z,93251.03
2023-01-20T13:12:11.187Z,93260.16
2023-01-20T13:15:14.635Z,93269.78
2023-01-20T13:18:19.722Z,93269.50
2023-01-20T13:21:05.766Z,93287.00
2023-01-20T13:23:52.197Z,93287.00
2023-01-20T13:26:38.290Z,93291.47
2023-01-20T13:29:36.908Z,93289.97
2023-01-20T13:32:26.784Z,93288.75
2023-01-20T13:35:16.194Z,93288.50
2023-01-20T13:38:02.462Z,93289.97
2023-01-20T13:40:50.186Z,93287.72
2023-01-20T13:43:37.274Z,93293.91
2023-01-20T13:46:35.632Z,93293.91
2023-01-20T13:49:22.417Z,93292.44
2023-01-20T13:52:10.426Z,93304.75
2023-01-20T13:54:57.703Z,93312.16
2023-01-20T13:57:43.991Z,93316.84
2023-01-20T14:00:30.077Z,93331.88
2023-01-20T14:03:19.461Z,93341.97
2023-01-20T14:06:10.629Z,93350.88
2023-01-20T14:08:56.528Z,93353.56
2023-01-20T14:11:48.618Z,93359.00
2023-01-20T14:14:35.054Z,93360.94
2023-01-20T14:17:22.052Z,93353.56
2023-01-20T14:20:23.630Z,93359.72
2023-01-20T14:23:46.247Z,93362.94
2023-01-20T14:26:32.442Z,93372.56
2023-01-20T14:29:20.270Z,93369.09
2023-01-20T14:32:39.019Z,93365.66
2023-01-20T14:35:31.439Z,93367.13
2023-01-20T14:38:17.592Z,93377.22
2023-01-20T14:41:03.773Z,93369.84
2023-01-20T14:43:49.976Z,93365.38
2023-01-20T14:46:36.253Z,93370.81
2023-01-20T14:49:22.592Z,93372.28
2023-01-20T14:52:28.607Z,93377.72
2023-01-20T14:55:30.779Z,93391.28
2023-01-20T14:58:17.197Z,93399.41
2023-01-20T15:01:03.937Z,93419.88
2023-01-20T15:04:00.088Z,93424.78
2023-01-20T15:06:53.449Z,93433.59
2023-01-20T15:09:41.325Z,93437.06
2023-01-20T15:12:33.987Z,93444.44
2023-01-20T15:15:23.244Z,93445.66
2023-01-20T15:18:09.486Z,93444.66
2023-01-20T15:21:11.658Z,93454.75
2023-01-20T15:24:18.091Z,93464.38
2023-01-20T15:27:17.053Z,93465.31
2023-01-20T15:30:17.057Z,93476.91
2023-01-20T15:33:03.073Z,93490.19
2023-01-20T15:35:56.493Z,93489.03
2023-01-20T15:38:42.727Z,93504.34
2023-01-20T15:41:28.911Z,93511.25
2023-01-20T15:44:15.396Z,93523.63
2023-01-20T15:47:01.475Z,93525.56
2023-01-20T15:49:47.630Z,93529.78
2023-01-20T15:52:33.773Z,93542.59
2023-01-20T15:55:20.124Z,93553.44
2023-01-20T15:58:12.205Z,93556.16
2023-01-20T16:00:58.281Z,93562.78
2023-01-20T16:03:44.489Z,93554.63
2023-01-20T16:06:31.142Z,93571.22
2023-01-20T16:09:21.577Z,93577.84
2023-01-20T16:12:11.561Z,93572.44
2023-01-20T16:14:58.584Z,93580.56
2023-01-20T16:17:44.741Z,93579.06
2023-01-20T16:20:31.021Z,93589.44
2023-01-20T16:23:17.134Z,93601.03
2023-01-20T16:26:03.004Z,93602.25
2023-01-20T16:28:49.717Z,93608.41
2023-01-20T16:31:35.846Z,93602.25
2023-01-20T16:34:21.846Z,93602.25
2023-01-20T16:37:09.690Z,93603.44
2023-01-20T16:39:55.744Z,93615.81
2023-01-20T16:42:42.000Z,93615.81
2023-01-20T16:45:28.587Z,93613.09
2023-01-20T16:48:14.685Z,93622.44
2023-01-20T16:51:04.597Z,93615.53
2023-01-20T16:53:50.457Z,93619.72
2023-01-20T16:56:36.496Z,93619.72
2023-01-20T16:59:22.997Z,93619.72
2023-01-20T17:02:11.048Z,93626.66
2023-01-20T17:04:57.244Z,93622.16
2023-01-20T17:07:43.442Z,93632.00
2023-01-20T17:10:30.164Z,93631.53
2023-01-20T17:13:16.377Z,93632.47
2023-01-20T17:16:02.955Z,93626.78
2023-01-20T17:18:49.597Z,93632.66
2023-01-20T17:21:37.216Z,93629.41
2023-01-20T17:24:23.042Z,93632.13
2023-01-20T17:27:08.741Z,93637.28
2023-01-20T17:29:55.009Z,93641.94
2023-01-20T17:32:41.323Z,93650.28
2023-01-20T17:35:27.941Z,93660.38
2023-01-20T17:38:14.141Z,93657.00
2023-01-20T17:41:03.490Z,93658.50
2023-01-20T17:43:49.558Z,93675.50
2023-01-20T17:46:35.911Z,93673.84
2023-01-20T17:49:21.942Z,93674.03
2023-01-20T17:52:08.309Z,93674.03
2023-01-20T17:54:54.644Z,93679.16
2023-01-20T17:57:40.446Z,93688.97
2023-01-20T18:00:26.772Z,93698.31
2023-01-20T18:03:12.979Z,93693.91
2023-01-20T18:06:00.278Z,93695.13
2023-01-20T18:08:50.175Z,93703.56
2023-01-20T18:11:37.040Z,93702.03
2023-01-20T18:14:23.120Z,93706.44
2023-01-20T18:17:09.385Z,93711.13
2023-01-20T18:19:55.677Z,93714.75
2023-01-20T18:22:46.684Z,93728.59
2023-01-20T18:25:32.779Z,93731.03
2023-01-20T18:28:19.135Z,93717.19
2023-01-20T18:31:09.481Z,93724.13
2023-01-20T18:33:56.083Z,93740.09
2023-01-20T18:36:43.272Z,93746.72
2023-01-20T18:39:29.737Z,93748.97
2023-01-20T18:42:16.015Z,93752.16
2023-01-20T18:45:02.156Z,93756.06
2023-01-20T18:47:48.634Z,93759.25
2023-01-20T18:50:34.750Z,93758.50
2023-01-20T18:53:21.046Z,93760.75
2023-01-20T18:56:08.783Z,93773.34
2023-01-20T18:58:54.996Z,93781.59
2023-01-20T19:01:41.338Z,93782.44
2023-01-20T19:04:27.847Z,93796.28
2023-01-20T19:07:13.577Z,93795.09
2023-01-20T19:09:59.727Z,93796.41
2023-01-20T19:12:46.049Z,93809.75
2023-01-20T19:15:33.703Z,93818.16
2023-01-20T19:18:19.829Z,93815.00
2023-01-20T19:21:06.483Z,93829.31
2023-01-20T19:23:53.323Z,93828.81
2023-01-20T19:26:39.475Z,93837.44
2023-01-20T19:29:28.311Z,93832.75
2023-01-20T19:32:15.269Z,93835.75
2023-01-20T19:35:01.459Z,93837.50
2023-01-20T19:37:48.022Z,93839.31
2023-01-20T19:40:33.879Z,93835.38
2023-01-20T19:43:20.298Z,93847.53
2023-01-20T19:46:07.149Z,93855.47
2023-01-20T19:48:53.005Z,93865.50
2023-01-20T19:51:39.318Z,93866.97
2023-01-20T19:54:28.554Z,93864.72
2023-01-20T19:57:14.651Z,93866.22
2023-01-20T20:00:00.846Z,93861.06
2023-01-20T20:02:47.288Z,93869.78
2023-01-20T20:05:40.607Z,93872.78
2023-01-20T20:08:27.097Z,93880.44
2023-01-20T20:11:13.506Z,93878.00
2023-01-20T20:14:00.441Z,93884.75
2023-01-20T20:16:46.505Z,93880.81
2023-01-20T20:19:33.330Z,93884.75
2023-01-20T20:22:19.516Z,93889.44
2023-01-20T20:25:09.383Z,93886.53
2023-01-20T20:27:57.782Z,93892.53
2023-01-20T20:30:44.138Z,93900.69
2023-01-20T20:33:30.031Z,93893.53
2023-01-20T20:36:16.139Z,93884.66
2023-01-20T20:39:02.571Z,93885.22
2023-01-20T20:41:48.601Z,93879.78
2023-01-20T20:44:34.954Z,93884.00
2023-01-20T20:47:21.204Z,93885.03
2023-01-20T20:50:08.023Z,93884.53
2023-01-20T20:52:54.003Z,93891.75
2023-01-20T20:55:40.774Z,93895.22
2023-01-20T20:58:27.548Z,93903.63
2023-01-20T21:01:15.347Z,93909.34
2023-01-20T21:04:01.493Z,93905.31
2023-01-20T21:06:47.768Z,93898.50
2023-01-20T21:09:34.075Z,93906.56
2023-01-20T21:12:20.194Z,93908.53
2023-01-20T21:15:06.893Z,93904.03
2023-01-20T21:17:53.032Z,93897.75
2023-01-20T21:20:39.084Z,93905.91
2023-01-20T21:23:25.380Z,93917.31
2023-01-20T21:26:12.129Z,93930.13
2023-01-20T21:29:01.761Z,93937.09
2023-01-20T21:31:48.579Z,93935.09
2023-01-20T21:34:34.763Z,93937.81
2023-01-20T21:37:20.929Z,93926.66
2023-01-20T21:40:07.387Z,93932.47
2023-01-20T21:42:54.079Z,93927.69
2023-01-20T21:45:40.386Z,93932.84
2023-01-20T21:48:45.174Z,93934.53
2023-01-20T21:51:50.088Z,93936.22
2023-01-20T21:54:36.352Z,93945.56
2023-01-20T21:57:22.430Z,93945.28
2023-01-20T22:00:09.755Z,93944.25
2023-01-20T22:02:55.989Z,93934.34
2023-01-20T22:05:42.212Z,93942.91
2023-01-20T22:08:28.263Z,93942.66
2023-01-20T22:11:14.637Z,93947.13
2023-01-20T22:14:10.031Z,93942.91
2023-01-20T22:16:56.002Z,93945.63
2023-01-20T22:19:43.899Z,93946.84
2023-01-20T22:22:30.306Z,93940.69
2023-01-20T22:25:16.799Z,93946.13
2023-01-20T22:28:03.084Z,93944.63
2023-01-20T22:30:49.447Z,93943.59
2023-01-20T22:33:35.320Z,93950.78
2023-01-20T22:36:21.634Z,93946.56
2023-01-20T22:39:07.642Z,93953.50
2023-01-20T22:41:54.261Z,93950.06
2023-01-20T22:44:40.358Z,93947.78
2023-01-20T22:47:27.109Z,93950.78
2023-01-20T22:50:13.389Z,93948.56
2023-01-20T22:52:59.246Z,93955.47
2023-01-20T22:56:00.051Z,93947.78
2023-01-20T22:58:46.866Z,93942.38
2023-01-20T23:01:33.259Z,93957.69
2023-01-20T23:04:19.430Z,93948.56
2023-01-20T23:07:05.656Z,93950.78
2023-01-20T23:09:51.763Z,93960.91
2023-01-20T23:12:38.035Z,93940.88
2023-01-20T23:15:25.214Z,93949.00
2023-01-20T23:18:11.679Z,93962.13
2023-01-20T23:20:57.888Z,93958.66
2023-01-20T23:23:43.864Z,93958.66
2023-01-20T23:26:30.016Z,93954.44
2023-01-20T23:29:16.087Z,93953.66
2023-01-20T23:32:02.317Z,93955.94
2023-01-20T23:34:48.412Z,93952.94
2023-01-20T23:37:34.570Z,93950.22
2023-01-20T23:40:20.851Z,93945.53
2023-01-20T23:43:06.832Z,93939.38
2023-01-20T23:45:55.979Z,93950.69
2023-01-20T23:48:42.122Z,93940.09
2023-01-20T23:51:28.401Z,93939.38
2023-01-20T23:54:14.711Z,93931.25
2023-01-20T23:57:00.828Z,93945.53
2023-01-20T23:59:47.303Z,93938.63
